sensor_id;sensor_type;location;lat;lon;timestamp;pressure;altitude;pressure_sealevel;temperature;humidity
43119;BME280;28729;49.838;8.650;2022-08-06T00:02:38;100420.72;;;17.67;71.76
43119;BME280;28729;49.838;8.650;2022-08-06T00:06:42;100429.66;;;17.64;71.93
43119;BME280;28729;49.838;8.650;2022-08-06T00:10:44;100443.59;;;17.59;72.04
43119;BME280;28729;49.838;8.650;2022-08-06T00:14:49;100445.84;;;17.52;71.85
43119;BME280;28729;49.838;8.650;2022-08-06T00:18:50;100448.88;;;17.45;72.15
43119;BME280;28729;49.838;8.650;2022-08-06T00:22:52;100458.09;;;17.41;72.52
43119;BME280;28729;49.838;8.650;2022-08-06T00:26:54;100462.25;;;17.33;72.95
43119;BME280;28729;49.838;8.650;2022-08-06T00:31:06;100481.22;;;17.26;72.83
43119;BME280;28729;49.838;8.650;2022-08-06T00:35:12;100481.75;;;17.18;73.39
43119;BME280;28729;49.838;8.650;2022-08-06T00:39:16;100496.25;;;17.15;73.44
43119;BME280;28729;49.838;8.650;2022-08-06T00:43:18;100494.28;;;17.05;73.30
43119;BME280;28729;49.838;8.650;2022-08-06T00:47:20;100497.34;;;16.93;73.35
43119;BME280;28729;49.838;8.650;2022-08-06T00:51:42;100500.66;;;16.85;73.78
43119;BME280;28729;49.838;8.650;2022-08-06T00:55:52;100510.34;;;16.77;73.55
43119;BME280;28729;49.838;8.650;2022-08-06T01:00:03;100500.28;;;16.71;73.52
43119;BME280;28729;49.838;8.650;2022-08-06T01:04:24;100501.13;;;16.67;73.68
43119;BME280;28729;49.838;8.650;2022-08-06T01:08:28;100505.28;;;16.64;73.57
43119;BME280;28729;49.838;8.650;2022-08-06T01:12:30;100504.16;;;16.60;73.35
43119;BME280;28729;49.838;8.650;2022-08-06T01:16:40;100511.09;;;16.52;73.71
43119;BME280;28729;49.838;8.650;2022-08-06T01:26:09;100516.38;;;16.49;73.67
43119;BME280;28729;49.838;8.650;2022-08-06T01:30:24;100515.50;;;16.43;73.29
43119;BME280;28729;49.838;8.650;2022-08-06T01:34:36;100515.22;;;16.39;73.10
43119;BME280;28729;49.838;8.650;2022-08-06T01:38:49;100513.53;;;16.33;72.73
43119;BME280;28729;49.838;8.650;2022-08-06T01:43:02;100513.50;;;16.28;72.19
43119;BME280;28729;49.838;8.650;2022-08-06T01:47:23;100509.31;;;16.26;73.17
43119;BME280;28729;49.838;8.650;2022-08-06T01:51:49;100516.53;;;16.22;72.54
43119;BME280;28729;49.838;8.650;2022-08-06T01:56:12;100521.47;;;16.14;72.71
43119;BME280;28729;49.838;8.650;2022-08-06T02:00:26;100517.56;;;16.10;72.50
43119;BME280;28729;49.838;8.650;2022-08-06T02:04:33;100519.22;;;16.06;72.64
43119;BME280;28729;49.838;8.650;2022-08-06T02:08:41;100522.78;;;16.02;73.02
43119;BME280;28729;49.838;8.650;2022-08-06T02:12:44;100525.28;;;15.98;72.58
43119;BME280;28729;49.838;8.650;2022-08-06T02:16:48;100535.53;;;15.92;72.58
43119;BME280;28729;49.838;8.650;2022-08-06T02:20:52;100533.28;;;15.89;73.17
43119;BME280;28729;49.838;8.650;2022-08-06T02:24:57;100537.44;;;15.87;73.10
43119;BME280;28729;49.838;8.650;2022-08-06T02:29:07;100534.34;;;15.83;73.33
43119;BME280;28729;49.838;8.650;2022-08-06T02:33:15;100529.28;;;15.75;74.04
43119;BME280;28729;49.838;8.650;2022-08-06T02:37:22;100542.28;;;15.69;73.54
43119;BME280;28729;49.838;8.650;2022-08-06T02:42:03;100536.41;;;15.66;73.66
43119;BME280;28729;49.838;8.650;2022-08-06T02:46:24;100540.31;;;15.65;73.48
43119;BME280;28729;49.838;8.650;2022-08-06T02:50:39;100549.13;;;15.57;73.31
43119;BME280;28729;49.838;8.650;2022-08-06T02:54:47;100550.19;;;15.50;72.68
43119;BME280;28729;49.838;8.650;2022-08-06T02:58:51;100553.22;;;15.49;72.79
43119;BME280;28729;49.838;8.650;2022-08-06T03:03:00;100555.69;;;15.45;72.87
43119;BME280;28729;49.838;8.650;2022-08-06T03:07:16;100556.50;;;15.41;72.53
43119;BME280;28729;49.838;8.650;2022-08-06T03:11:30;100567.00;;;15.39;72.53
43119;BME280;28729;49.838;8.650;2022-08-06T03:15:33;100573.34;;;15.34;73.07
43119;BME280;28729;49.838;8.650;2022-08-06T03:19:56;100569.94;;;15.27;73.35
43119;BME280;28729;49.838;8.650;2022-08-06T03:24:00;100571.25;;;15.19;73.39
43119;BME280;28729;49.838;8.650;2022-08-06T03:28:04;100579.56;;;15.14;73.57
43119;BME280;28729;49.838;8.650;2022-08-06T03:32:08;100582.84;;;15.11;73.62
43119;BME280;28729;49.838;8.650;2022-08-06T03:36:30;100580.25;;;15.04;73.42
43119;BME280;28729;49.838;8.650;2022-08-06T03:40:33;100580.22;;;14.99;73.22
43119;BME280;28729;49.838;8.650;2022-08-06T03:44:38;100594.03;;;14.94;73.53
43119;BME280;28729;49.838;8.650;2022-08-06T03:48:40;100591.78;;;14.91;73.21
43119;BME280;28729;49.838;8.650;2022-08-06T03:52:46;100596.16;;;14.87;72.67
43119;BME280;28729;49.838;8.650;2022-08-06T03:56:52;100595.59;;;14.85;72.43
43119;BME280;28729;49.838;8.650;2022-08-06T04:01:02;100585.56;;;14.84;72.23
43119;BME280;28729;49.838;8.650;2022-08-06T04:05:10;100596.34;;;14.80;72.43
43119;BME280;28729;49.838;8.650;2022-08-06T04:09:14;100593.78;;;14.74;72.16
43119;BME280;28729;49.838;8.650;2022-08-06T04:13:37;100597.31;;;14.69;72.28
43119;BME280;28729;49.838;8.650;2022-08-06T04:18:00;100603.38;;;14.66;72.36
43119;BME280;28729;49.838;8.650;2022-08-06T04:22:03;100598.94;;;14.65;72.26
43119;BME280;28729;49.838;8.650;2022-08-06T04:26:25;100609.97;;;14.60;72.35
43119;BME280;28729;49.838;8.650;2022-08-06T04:30:31;100611.59;;;14.56;72.50
43119;BME280;28729;49.838;8.650;2022-08-06T04:34:36;100624.84;;;14.54;72.14
43119;BME280;28729;49.838;8.650;2022-08-06T04:38:59;100621.72;;;14.50;72.26
43119;BME280;28729;49.838;8.650;2022-08-06T04:43:04;100630.56;;;14.47;72.28
43119;BME280;28729;49.838;8.650;2022-08-06T04:47:08;100626.63;;;14.43;72.54
43119;BME280;28729;49.838;8.650;2022-08-06T04:51:11;100628.22;;;14.39;72.69
43119;BME280;28729;49.838;8.650;2022-08-06T04:55:32;100633.19;;;14.37;72.53
43119;BME280;28729;49.838;8.650;2022-08-06T04:59:35;100635.88;;;14.32;73.10
43119;BME280;28729;49.838;8.650;2022-08-06T05:03:51;100647.50;;;14.29;72.72
43119;BME280;28729;49.838;8.650;2022-08-06T05:08:13;100642.47;;;14.26;73.62
43119;BME280;28729;49.838;8.650;2022-08-06T05:12:32;100649.09;;;14.25;73.33
43119;BME280;28729;49.838;8.650;2022-08-06T05:16:41;100657.66;;;14.23;73.42
43119;BME280;28729;49.838;8.650;2022-08-06T05:20:55;100654.66;;;14.25;73.36
43119;BME280;28729;49.838;8.650;2022-08-06T05:24:58;100663.81;;;14.25;73.86
43119;BME280;28729;49.838;8.650;2022-08-06T05:29:04;100656.03;;;14.27;73.58
43119;BME280;28729;49.838;8.650;2022-08-06T05:33:05;100669.75;;;14.34;73.74
43119;BME280;28729;49.838;8.650;2022-08-06T05:37:07;100675.34;;;14.39;73.80
43119;BME280;28729;49.838;8.650;2022-08-06T05:41:11;100684.09;;;14.48;73.83
43119;BME280;28729;49.838;8.650;2022-08-06T05:45:15;100680.09;;;14.55;73.32
43119;BME280;28729;49.838;8.650;2022-08-06T05:49:38;100677.72;;;14.64;73.00
43119;BME280;28729;49.838;8.650;2022-08-06T05:54:07;100677.00;;;14.74;73.20
43119;BME280;28729;49.838;8.650;2022-08-06T05:58:28;100689.94;;;14.85;72.67
43119;BME280;28729;49.838;8.650;2022-08-06T06:02:32;100681.16;;;14.93;72.39
43119;BME280;28729;49.838;8.650;2022-08-06T06:06:39;100695.16;;;15.03;72.43
43119;BME280;28729;49.838;8.650;2022-08-06T06:10:44;100697.22;;;15.13;72.19
43119;BME280;28729;49.838;8.650;2022-08-06T06:14:53;100694.31;;;15.25;72.12
43119;BME280;28729;49.838;8.650;2022-08-06T06:19:14;100698.06;;;15.36;71.92
43119;BME280;28729;49.838;8.650;2022-08-06T06:23:42;100709.59;;;15.49;71.40
43119;BME280;28729;49.838;8.650;2022-08-06T06:27:52;100706.81;;;15.71;71.00
43119;BME280;28729;49.838;8.650;2022-08-06T06:32:08;100710.84;;;15.86;70.81
43119;BME280;28729;49.838;8.650;2022-08-06T06:36:47;100707.41;;;16.06;70.63
43119;BME280;28729;49.838;8.650;2022-08-06T06:41:24;100714.31;;;16.30;69.96
43119;BME280;28729;49.838;8.650;2022-08-06T06:45:55;100713.06;;;16.53;69.30
43119;BME280;28729;49.838;8.650;2022-08-06T06:50:22;100725.16;;;16.74;68.88
43119;BME280;28729;49.838;8.650;2022-08-06T06:54:33;100724.78;;;16.93;68.15
43119;BME280;28729;49.838;8.650;2022-08-06T06:58:42;100722.38;;;17.17;67.59
43119;BME280;28729;49.838;8.650;2022-08-06T07:02:49;100726.91;;;17.33;66.46
43119;BME280;28729;49.838;8.650;2022-08-06T07:06:56;100723.69;;;17.67;66.33
43119;BME280;28729;49.838;8.650;2022-08-06T07:11:10;100723.75;;;17.97;65.22
43119;BME280;28729;49.838;8.650;2022-08-06T07:15:23;100720.44;;;18.21;64.17
43119;BME280;28729;49.838;8.650;2022-08-06T07:19:33;100724.59;;;18.49;63.38
43119;BME280;28729;49.838;8.650;2022-08-06T07:23:37;100718.47;;;18.78;62.04
43119;BME280;28729;49.838;8.650;2022-08-06T07:27:59;100722.28;;;19.02;59.91
43119;BME280;28729;49.838;8.650;2022-08-06T07:32:03;100731.44;;;19.18;58.89
43119;BME280;28729;49.838;8.650;2022-08-06T07:36:07;100733.06;;;19.40;57.10
43119;BME280;28729;49.838;8.650;2022-08-06T07:40:18;100720.91;;;19.70;56.77
43119;BME280;28729;49.838;8.650;2022-08-06T07:44:25;100726.09;;;19.92;55.92
43119;BME280;28729;49.838;8.650;2022-08-06T07:48:52;100734.13;;;19.98;52.57
43119;BME280;28729;49.838;8.650;2022-08-06T07:52:58;100734.91;;;20.09;51.39
43119;BME280;28729;49.838;8.650;2022-08-06T07:57:01;100733.38;;;20.27;49.96
43119;BME280;28729;49.838;8.650;2022-08-06T08:01:05;100724.63;;;20.34;48.86
43119;BME280;28729;49.838;8.650;2022-08-06T08:05:09;100721.94;;;20.58;48.68
43119;BME280;28729;49.838;8.650;2022-08-06T08:09:50;100723.72;;;21.02;48.16
43119;BME280;28729;49.838;8.650;2022-08-06T08:14:04;100721.22;;;21.24;47.10
43119;BME280;28729;49.838;8.650;2022-08-06T08:18:07;100725.53;;;21.35;45.55
43119;BME280;28729;49.838;8.650;2022-08-06T08:22:15;100723.03;;;21.39;45.58
43119;BME280;28729;49.838;8.650;2022-08-06T08:26:17;100731.84;;;21.51;44.97
43119;BME280;28729;49.838;8.650;2022-08-06T08:30:25;100729.50;;;21.58;44.27
43119;BME280;28729;49.838;8.650;2022-08-06T08:34:51;100737.19;;;21.72;43.85
43119;BME280;28729;49.838;8.650;2022-08-06T08:39:27;100728.91;;;21.80;43.35
43119;BME280;28729;49.838;8.650;2022-08-06T08:43:35;100723.59;;;21.98;43.63
43119;BME280;28729;49.838;8.650;2022-08-06T08:47:58;100730.88;;;22.18;42.59
43119;BME280;28729;49.838;8.650;2022-08-06T08:52:17;100726.47;;;22.30;42.25
43119;BME280;28729;49.838;8.650;2022-08-06T08:56:39;100724.31;;;22.41;42.28
43119;BME280;28729;49.838;8.650;2022-08-06T09:01:48;100724.63;;;22.40;41.31
43119;BME280;28729;49.838;8.650;2022-08-06T09:06:18;100716.59;;;22.33;40.76
43119;BME280;28729;49.838;8.650;2022-08-06T09:10:55;100723.78;;;22.39;41.05
43119;BME280;28729;49.838;8.650;2022-08-06T09:14:59;100715.13;;;22.68;39.97
43119;BME280;28729;49.838;8.650;2022-08-06T09:19:03;100730.56;;;22.85;38.26
43119;BME280;28729;49.838;8.650;2022-08-06T09:23:15;100714.72;;;22.61;38.71
43119;BME280;28729;49.838;8.650;2022-08-06T09:27:20;100731.63;;;22.89;39.24
43119;BME280;28729;49.838;8.650;2022-08-06T09:31:46;100722.38;;;23.02;37.54
43119;BME280;28729;49.838;8.650;2022-08-06T09:36:11;100721.69;;;22.96;37.67
43119;BME280;28729;49.838;8.650;2022-08-06T09:40:36;100717.09;;;23.14;37.17
43119;BME280;28729;49.838;8.650;2022-08-06T09:45:22;100722.59;;;23.19;37.31
43119;BME280;28729;49.838;8.650;2022-08-06T09:49:57;100725.03;;;23.26;37.38
43119;BME280;28729;49.838;8.650;2022-08-06T09:54:16;100716.25;;;23.28;36.88
43119;BME280;28729;49.838;8.650;2022-08-06T09:58:41;100706.03;;;23.46;35.92
43119;BME280;28729;49.838;8.650;2022-08-06T10:02:44;100713.75;;;23.40;36.73
43119;BME280;28729;49.838;8.650;2022-08-06T10:11:09;100703.50;;;23.72;35.08
43119;BME280;28729;49.838;8.650;2022-08-06T10:15:30;100710.44;;;23.88;34.54
43119;BME280;28729;49.838;8.650;2022-08-06T10:20:13;100706.69;;;23.93;34.98
43119;BME280;28729;49.838;8.650;2022-08-06T10:24:51;100704.59;;;23.98;34.91
43119;BME280;28729;49.838;8.650;2022-08-06T10:29:19;100711.25;;;24.25;33.93
43119;BME280;28729;49.838;8.650;2022-08-06T10:33:28;100696.53;;;24.28;34.51
43119;BME280;28729;49.838;8.650;2022-08-06T10:37:36;100704.34;;;24.53;34.24
43119;BME280;28729;49.838;8.650;2022-08-06T10:42:02;100698.84;;;24.79;34.13
43119;BME280;28729;49.838;8.650;2022-08-06T10:46:21;100685.75;;;24.75;33.32
43119;BME280;28729;49.838;8.650;2022-08-06T10:50:30;100696.16;;;25.06;33.66
43119;BME280;28729;49.838;8.650;2022-08-06T10:54:45;100693.56;;;25.18;32.83
43119;BME280;28729;49.838;8.650;2022-08-06T10:58:52;100694.59;;;25.31;32.83
43119;BME280;28729;49.838;8.650;2022-08-06T11:17:12;100678.72;;;25.61;32.49
43119;BME280;28729;49.838;8.650;2022-08-06T11:31:05;100658.03;;;26.00;32.42
43119;BME280;28729;49.838;8.650;2022-08-06T11:59:14;100658.91;;;26.65;30.10
43119;BME280;28729;49.838;8.650;2022-08-06T12:08:21;100644.63;;;28.01;28.70
43119;BME280;28729;49.838;8.650;2022-08-06T12:28:12;100619.00;;;30.06;25.07
43119;BME280;28729;49.838;8.650;2022-08-06T12:32:35;100603.72;;;30.11;25.24
43119;BME280;28729;49.838;8.650;2022-08-06T12:37:05;100597.69;;;30.88;24.88
43119;BME280;28729;49.838;8.650;2022-08-06T12:41:09;100590.66;;;31.17;24.04
43119;BME280;28729;49.838;8.650;2022-08-06T12:45:34;100594.03;;;31.58;23.92
43119;BME280;28729;49.838;8.650;2022-08-06T12:49:56;100587.31;;;32.25;23.87
43119;BME280;28729;49.838;8.650;2022-08-06T12:54:05;100576.03;;;32.78;23.17
43119;BME280;28729;49.838;8.650;2022-08-06T12:58:17;100578.34;;;33.48;22.42
43119;BME280;28729;49.838;8.650;2022-08-06T13:02:43;100581.06;;;34.01;21.49
43119;BME280;28729;49.838;8.650;2022-08-06T13:06:49;100574.34;;;34.58;19.91
43119;BME280;28729;49.838;8.650;2022-08-06T13:11:27;100572.38;;;34.24;20.53
43119;BME280;28729;49.838;8.650;2022-08-06T13:16:01;100551.25;;;34.81;20.09
43119;BME280;28729;49.838;8.650;2022-08-06T13:25:48;100552.84;;;34.34;19.92
43119;BME280;28729;49.838;8.650;2022-08-06T13:30:39;100549.75;;;35.67;19.90
43119;BME280;28729;49.838;8.650;2022-08-06T13:34:47;100555.91;;;35.73;19.15
43119;BME280;28729;49.838;8.650;2022-08-06T13:38:57;100544.66;;;35.43;18.99
43119;BME280;28729;49.838;8.650;2022-08-06T13:43:10;100539.03;;;35.57;18.37
43119;BME280;28729;49.838;8.650;2022-08-06T13:47:42;100542.16;;;36.43;17.68
43119;BME280;28729;49.838;8.650;2022-08-06T13:52:02;100536.28;;;35.96;18.12
43119;BME280;28729;49.838;8.650;2022-08-06T13:56:08;100532.19;;;35.90;17.89
43119;BME280;28729;49.838;8.650;2022-08-06T14:00:36;100534.75;;;36.35;17.71
43119;BME280;28729;49.838;8.650;2022-08-06T14:04:52;100521.66;;;36.77;17.49
43119;BME280;28729;49.838;8.650;2022-08-06T14:09:08;100515.88;;;37.05;17.06
43119;BME280;28729;49.838;8.650;2022-08-06T14:13:35;100519.78;;;37.72;16.22
43119;BME280;28729;49.838;8.650;2022-08-06T14:17:37;100513.81;;;37.16;16.93
43119;BME280;28729;49.838;8.650;2022-08-06T14:21:45;100509.31;;;36.22;17.36
43119;BME280;28729;49.838;8.650;2022-08-06T14:25:50;100514.28;;;36.83;16.83
43119;BME280;28729;49.838;8.650;2022-08-06T14:30:04;100520.41;;;36.85;16.90
43119;BME280;28729;49.838;8.650;2022-08-06T14:34:27;100510.97;;;36.34;17.25
43119;BME280;28729;49.838;8.650;2022-08-06T14:38:54;100517.22;;;34.28;18.61
43119;BME280;28729;49.838;8.650;2022-08-06T14:43:11;100518.47;;;31.84;20.47
43119;BME280;28729;49.838;8.650;2022-08-06T14:47:43;100511.78;;;30.51;21.85
43119;BME280;28729;49.838;8.650;2022-08-06T14:56:42;100504.34;;;30.14;22.25
43119;BME280;28729;49.838;8.650;2022-08-06T15:01:21;100501.38;;;28.86;23.38
43119;BME280;28729;49.838;8.650;2022-08-06T15:05:26;100485.78;;;28.18;24.27
43119;BME280;28729;49.838;8.650;2022-08-06T15:09:55;100482.94;;;28.06;24.02
43119;BME280;28729;49.838;8.650;2022-08-06T15:14:17;100471.22;;;27.95;24.00
43119;BME280;28729;49.838;8.650;2022-08-06T15:18:55;100482.88;;;27.48;24.95
43119;BME280;28729;49.838;8.650;2022-08-06T15:23:33;100471.09;;;27.25;24.88
43119;BME280;28729;49.838;8.650;2022-08-06T15:28:16;100473.97;;;26.96;24.95
43119;BME280;28729;49.838;8.650;2022-08-06T15:32:20;100476.06;;;26.57;25.55
43119;BME280;28729;49.838;8.650;2022-08-06T15:36:29;100474.94;;;26.41;25.62
43119;BME280;28729;49.838;8.650;2022-08-06T15:40:34;100469.69;;;26.30;26.59
43119;BME280;28729;49.838;8.650;2022-08-06T15:44:35;100469.94;;;26.97;25.63
43119;BME280;28729;49.838;8.650;2022-08-06T15:48:42;100468.03;;;27.31;25.80
43119;BME280;28729;49.838;8.650;2022-08-06T15:52:54;100470.91;;;28.34;24.33
43119;BME280;28729;49.838;8.650;2022-08-06T15:56:58;100470.44;;;28.32;24.28
43119;BME280;28729;49.838;8.650;2022-08-06T16:01:00;100470.38;;;27.83;24.80
43119;BME280;28729;49.838;8.650;2022-08-06T16:05:08;100465.00;;;27.36;25.28
43119;BME280;28729;49.838;8.650;2022-08-06T16:09:12;100458.50;;;26.93;25.76
43119;BME280;28729;49.838;8.650;2022-08-06T16:13:30;100459.09;;;26.57;26.22
43119;BME280;28729;49.838;8.650;2022-08-06T16:17:34;100468.19;;;26.33;26.29
43119;BME280;28729;49.838;8.650;2022-08-06T16:21:57;100460.09;;;26.14;26.52
43119;BME280;28729;49.838;8.650;2022-08-06T16:26:00;100463.16;;;26.09;26.42
43119;BME280;28729;49.838;8.650;2022-08-06T16:30:21;100464.03;;;25.75;27.36
43119;BME280;28729;49.838;8.650;2022-08-06T16:34:24;100470.59;;;25.40;27.82
43119;BME280;28729;49.838;8.650;2022-08-06T16:38:31;100457.16;;;25.29;27.44
43119;BME280;28729;49.838;8.650;2022-08-06T16:42:35;100465.78;;;25.15;27.93
43119;BME280;28729;49.838;8.650;2022-08-06T16:46:36;100458.63;;;25.00;27.73
43119;BME280;28729;49.838;8.650;2022-08-06T16:50:44;100459.78;;;24.90;27.85
43119;BME280;28729;49.838;8.650;2022-08-06T16:54:47;100455.47;;;24.84;27.86
43119;BME280;28729;49.838;8.650;2022-08-06T16:58:49;100456.44;;;24.79;28.75
43119;BME280;28729;49.838;8.650;2022-08-06T17:02:53;100456.31;;;24.85;28.21
43119;BME280;28729;49.838;8.650;2022-08-06T17:06:55;100455.31;;;24.72;28.53
43119;BME280;28729;49.838;8.650;2022-08-06T17:11:00;100452.63;;;24.67;28.36
43119;BME280;28729;49.838;8.650;2022-08-06T17:15:04;100451.59;;;24.63;27.95
43119;BME280;28729;49.838;8.650;2022-08-06T17:19:26;100446.97;;;24.58;28.09
43119;BME280;28729;49.838;8.650;2022-08-06T17:23:28;100455.31;;;24.72;29.18
43119;BME280;28729;49.838;8.650;2022-08-06T17:27:34;100454.50;;;25.41;27.97
43119;BME280;28729;49.838;8.650;2022-08-06T17:31:57;100451.34;;;24.99;28.58
43119;BME280;28729;49.838;8.650;2022-08-06T17:35:59;100458.75;;;24.60;29.09
43119;BME280;28729;49.838;8.650;2022-08-06T17:40:24;100454.16;;;24.33;28.94
43119;BME280;28729;49.838;8.650;2022-08-06T17:44:33;100457.25;;;24.14;30.00
43119;BME280;28729;49.838;8.650;2022-08-06T17:48:36;100451.59;;;24.05;29.70
43119;BME280;28729;49.838;8.650;2022-08-06T17:52:39;100457.88;;;24.02;30.06
43119;BME280;28729;49.838;8.650;2022-08-06T17:56:41;100454.31;;;23.88;30.16
43119;BME280;28729;49.838;8.650;2022-08-06T18:00:45;100462.03;;;23.74;29.75
43119;BME280;28729;49.838;8.650;2022-08-06T18:04:49;100458.19;;;23.70;30.38
43119;BME280;28729;49.838;8.650;2022-08-06T18:08:51;100460.25;;;23.78;30.54
43119;BME280;28729;49.838;8.650;2022-08-06T18:12:54;100468.03;;;23.58;30.30
43119;BME280;28729;49.838;8.650;2022-08-06T18:16:58;100476.97;;;23.38;31.11
43119;BME280;28729;49.838;8.650;2022-08-06T18:21:00;100478.00;;;23.19;30.92
43119;BME280;28729;49.838;8.650;2022-08-06T18:25:23;100482.03;;;22.91;31.65
43119;BME280;28729;49.838;8.650;2022-08-06T18:29:24;100477.91;;;22.74;31.40
43119;BME280;28729;49.838;8.650;2022-08-06T18:33:46;100485.41;;;22.65;31.40
43119;BME280;28729;49.838;8.650;2022-08-06T18:37:54;100493.34;;;22.49;31.68
43119;BME280;28729;49.838;8.650;2022-08-06T18:42:04;100490.53;;;22.36;31.95
43119;BME280;28729;49.838;8.650;2022-08-06T18:46:06;100496.25;;;22.17;32.18
43119;BME280;28729;49.838;8.650;2022-08-06T18:50:11;100490.19;;;21.96;32.69
43119;BME280;28729;49.838;8.650;2022-08-06T18:54:14;100489.09;;;21.78;32.81
43119;BME280;28729;49.838;8.650;2022-08-06T18:58:23;100494.66;;;21.64;32.81
43119;BME280;28729;49.838;8.650;2022-08-06T19:02:29;100491.91;;;21.45;33.23
43119;BME280;28729;49.838;8.650;2022-08-06T19:06:32;100503.09;;;21.26;33.50
43119;BME280;28729;49.838;8.650;2022-08-06T19:10:34;100509.28;;;21.09;33.80
43119;BME280;28729;49.838;8.650;2022-08-06T19:14:37;100512.00;;;20.96;33.93
43119;BME280;28729;49.838;8.650;2022-08-06T19:18:44;100507.97;;;20.83;34.16
43119;BME280;28729;49.838;8.650;2022-08-06T19:22:51;100518.84;;;20.65;34.88
43119;BME280;28729;49.838;8.650;2022-08-06T19:27:03;100526.47;;;20.60;34.75
43119;BME280;28729;49.838;8.650;2022-08-06T19:31:05;100514.34;;;20.40;35.70
43119;BME280;28729;49.838;8.650;2022-08-06T19:35:11;100528.47;;;20.30;36.07
43119;BME280;28729;49.838;8.650;2022-08-06T19:39:16;100532.00;;;20.17;35.70
43119;BME280;28729;49.838;8.650;2022-08-06T19:43:39;100535.25;;;20.00;36.31
43119;BME280;28729;49.838;8.650;2022-08-06T19:48:01;100540.09;;;19.89;36.05
43119;BME280;28729;49.838;8.650;2022-08-06T19:52:05;100533.22;;;19.76;36.48
43119;BME280;28729;49.838;8.650;2022-08-06T19:56:09;100538.63;;;19.68;36.93
43119;BME280;28729;49.838;8.650;2022-08-06T20:00:20;100541.47;;;19.57;37.59
43119;BME280;28729;49.838;8.650;2022-08-06T20:04:43;100532.59;;;19.45;37.60
43119;BME280;28729;49.838;8.650;2022-08-06T20:08:53;100554.22;;;19.34;37.97
43119;BME280;28729;49.838;8.650;2022-08-06T20:12:55;100544.25;;;19.23;37.93
43119;BME280;28729;49.838;8.650;2022-08-06T20:16:58;100544.03;;;19.09;38.96
43119;BME280;28729;49.838;8.650;2022-08-06T20:21:02;100545.19;;;19.03;38.73
43119;BME280;28729;49.838;8.650;2022-08-06T20:25:06;100547.75;;;18.95;39.12
43119;BME280;28729;49.838;8.650;2022-08-06T20:29:19;100540.28;;;18.80;38.78
43119;BME280;28729;49.838;8.650;2022-08-06T20:33:41;100544.53;;;18.67;39.45
43119;BME280;28729;49.838;8.650;2022-08-06T20:38:00;100542.03;;;18.60;39.49
43119;BME280;28729;49.838;8.650;2022-08-06T20:42:07;100537.59;;;18.54;40.09
43119;BME280;28729;49.838;8.650;2022-08-06T20:46:14;100535.97;;;18.43;40.12
43119;BME280;28729;49.838;8.650;2022-08-06T20:50:23;100528.19;;;18.35;40.41
43119;BME280;28729;49.838;8.650;2022-08-06T20:54:28;100533.50;;;18.26;40.11
43119;BME280;28729;49.838;8.650;2022-08-06T20:58:33;100526.00;;;18.21;40.06
43119;BME280;28729;49.838;8.650;2022-08-06T21:02:36;100535.50;;;18.15;40.86
43119;BME280;28729;49.838;8.650;2022-08-06T21:06:43;100533.84;;;18.09;40.22
43119;BME280;28729;49.838;8.650;2022-08-06T21:10:49;100523.25;;;18.01;40.71
43119;BME280;28729;49.838;8.650;2022-08-06T21:14:51;100523.56;;;17.94;41.13
43119;BME280;28729;49.838;8.650;2022-08-06T21:18:57;100528.56;;;17.92;40.99
43119;BME280;28729;49.838;8.650;2022-08-06T21:23:00;100527.75;;;17.87;41.32
43119;BME280;28729;49.838;8.650;2022-08-06T21:27:02;100528.31;;;17.84;41.45
43119;BME280;28729;49.838;8.650;2022-08-06T21:31:08;100532.22;;;17.77;41.47
43119;BME280;28729;49.838;8.650;2022-08-06T21:35:11;100530.25;;;17.73;41.61
43119;BME280;28729;49.838;8.650;2022-08-06T21:39:13;100533.59;;;17.70;41.97
43119;BME280;28729;49.838;8.650;2022-08-06T21:43:16;100528.59;;;17.67;42.11
43119;BME280;28729;49.838;8.650;2022-08-06T21:47:23;100536.09;;;17.61;42.74
43119;BME280;28729;49.838;8.650;2022-08-06T21:51:37;100533.59;;;17.60;42.04
43119;BME280;28729;49.838;8.650;2022-08-06T21:55:38;100540.28;;;17.59;42.09
43119;BME280;28729;49.838;8.650;2022-08-06T22:00:00;100537.22;;;17.55;42.56
43119;BME280;28729;49.838;8.650;2022-08-06T22:04:12;100528.84;;;17.50;42.67
43119;BME280;28729;49.838;8.650;2022-08-06T22:08:35;100535.00;;;17.47;42.90
43119;BME280;28729;49.838;8.650;2022-08-06T22:12:36;100536.38;;;17.49;43.00
43119;BME280;28729;49.838;8.650;2022-08-06T22:16:58;100535.81;;;17.42;43.81
43119;BME280;28729;49.838;8.650;2022-08-06T22:21:02;100533.03;;;17.37;43.70
43119;BME280;28729;49.838;8.650;2022-08-06T22:25:05;100535.25;;;17.35;43.65
43119;BME280;28729;49.838;8.650;2022-08-06T22:29:09;100536.06;;;17.30;43.72
43119;BME280;28729;49.838;8.650;2022-08-06T22:33:21;100533.84;;;17.27;43.84
43119;BME280;28729;49.838;8.650;2022-08-06T22:37:24;100532.75;;;17.23;44.02
43119;BME280;28729;49.838;8.650;2022-08-06T22:41:47;100524.91;;;17.15;43.73
43119;BME280;28729;49.838;8.650;2022-08-06T22:46:07;100544.13;;;17.12;44.01
43119;BME280;28729;49.838;8.650;2022-08-06T22:50:10;100532.72;;;17.08;43.86
43119;BME280;28729;49.838;8.650;2022-08-06T22:54:17;100541.06;;;17.03;43.85
43119;BME280;28729;49.838;8.650;2022-08-06T22:58:39;100541.59;;;17.00;44.31
43119;BME280;28729;49.838;8.650;2022-08-06T23:03:00;100534.94;;;16.96;44.47
43119;BME280;28729;49.838;8.650;2022-08-06T23:07:02;100534.59;;;16.92;44.74
43119;BME280;28729;49.838;8.650;2022-08-06T23:11:10;100527.66;;;16.84;44.75
43119;BME280;28729;49.838;8.650;2022-08-06T23:15:20;100520.09;;;16.80;44.55
43119;BME280;28729;49.838;8.650;2022-08-06T23:19:41;100524.56;;;16.76;45.30
43119;BME280;28729;49.838;8.650;2022-08-06T23:23:59;100524.25;;;16.72;44.93
43119;BME280;28729;49.838;8.650;2022-08-06T23:28:03;100518.09;;;16.65;45.35